Overview Statistics Trail Chart Weather Telemetry Raw packets
 

This is the latest recevied weather packets stored in our database for station/object CW79215. If no packets are shown the sender has not sent any weather packets the latest 10 day(s).

<< 24 25 26 27 28 29 30 >>
Time Temp. Humidity Pressure Rain* Wind** Luminosity Snow
1788131129 17.22° C 84% 1025.8 hPa - - - -
1788130229 17.22° C 83% 1026.6 hPa - - - -
1788129329 18.33° C 69% 1025.2 hPa - - - -
1788128428 17.78° C 69% 1024.6 hPa - - - -
1788127528 17.78° C 69% 1024.5 hPa - - - -
1788126628 17.78° C 68% 1024.6 hPa - - - -
1788125728 17.22° C 70% 1024.7 hPa - - - -
1788124828 17.78° C 69% 1024.7 hPa - - - -
1788123928 17.78° C 68% 1024.9 hPa - - - -
1788123028 18.33° C 68% 1024.9 hPa - - - -
1788122130 18.33° C 66% 1024.9 hPa - - - -
1788121230 18.89° C 65% 1025 hPa - - - -
1788120330 18.89° C 65% 1024.9 hPa - - - -
1788119430 19.44° C 61% 1025 hPa - - - -
1788118530 20° C 61% 1024.9 hPa - - - -
1788117630 20.56° C 57% 1024.9 hPa - - - -
1788116730 20.56° C 58% 1024.8 hPa - - - -
1788115830 20.56° C 56% 1024.8 hPa - - - -
1788114929 21.11° C 55% 1024.7 hPa - - - -
1788114029 21.67° C 53% 1024.7 hPa - - - -
1788113129 22.22° C 51% 1024.6 hPa - - - -
1788112229 22.78° C 51% 1024.6 hPa - - - -
1788111329 22.78° C 50% 1024.6 hPa - - - -
1788110429 23.33° C 48% 1024.7 hPa - - - -
1788109529 23.89° C 46% 1024.7 hPa - - - -

* Rain since midnight (hover to see other rain measurements)
** Current wind speed in m/s (hover to see current wind gust speed)